»·PEaware :: N4VY KAVQ-KBXK

N4VY :: KAVQ-KBXK

FLIGHT INFORMATION

Flight Status: Arrived
Operator: Privately registered:
United States
More flights under this callsign
Pilot: Jeremy H. (30118)
Aircraft: CESSNA 172 SKYHAWK
(C172)
More flights by this aircraft type
Origin: KAVQ Marana Northwest Regl
United States
Destination: KBXK Buckeye Mun
United States
More flights between these airports :: More routes between these airports
Route: DIRECT
File this flight plan on PilotEdge
Remarks:
Altitude:
(Current/Filed)
5,500ft
Speed:
(Current/Filed)
110kts
Departed: 01-Oct-20 05:29 PM
Arrived: 01-Oct-20 06:31 PM
Distance/Time
Traveled:
96nm/1:02
Distance/Time
To Go:
Arrived

Flight Plot

Page will automatically refresh every two minutes.

Flight plan parsing failed; only flown route is shown


Map Options




Map Legend


Flown Route
Filed Route
Departure Airport
Arrival Airport
Navaid (VOR, NDB)
Fix

Horizontal Profiles

Position Reports

Time Latitude Longitude Heading Altitude Ground
Speed
01-Oct-20 17:20 32.405679 -111.218669 133 2023ft 0kts
01-Oct-20 17:21 32.405679 -111.218669 133 2023ft 0kts
01-Oct-20 17:22 32.405679 -111.218669 133 2023ft 0kts
01-Oct-20 17:22 32.405679 -111.218669 133 2023ft 0kts
01-Oct-20 17:23 32.405679 -111.218669 133 2023ft 0kts
01-Oct-20 17:24 32.405709 -111.218460 40 2024ft 3kts
01-Oct-20 17:26 32.406485 -111.216093 130 2026ft 7kts
01-Oct-20 17:26 32.407015 -111.215133 45 2026ft 0kts
01-Oct-20 17:27 32.407015 -111.215133 45 2026ft 0kts
01-Oct-20 17:28 32.409372 -111.216534 318 2029ft 57kts
01-Oct-20 17:29 32.420339 -111.232614 302 2808ft 67kts
01-Oct-20 17:30 32.433661 -111.255671 302 3338ft 99kts
01-Oct-20 17:31 32.452090 -111.281931 308 3844ft 105kts
01-Oct-20 17:32 32.470719 -111.308156 308 4338ft 104kts
01-Oct-20 17:33 32.489244 -111.334366 308 4835ft 102kts
01-Oct-20 17:34 32.507341 -111.360099 308 5331ft 100kts
01-Oct-20 17:35 32.503769 -111.389407 295 5810ft 98kts
01-Oct-20 17:36 32.524014 -111.410186 316 6300ft 96kts
01-Oct-20 17:37 32.543670 -111.433633 312 6508ft 111kts
01-Oct-20 17:38 32.565136 -111.461904 311 6506ft 116kts
01-Oct-20 17:39 32.586281 -111.490875 310 6505ft 116kts
01-Oct-20 17:40 32.607397 -111.520059 310 6505ft 117kts
01-Oct-20 17:41 32.628594 -111.549375 310 6505ft 117kts
01-Oct-20 17:42 32.649830 -111.578700 310 6505ft 117kts
01-Oct-20 17:43 32.670939 -111.607930 310 6505ft 117kts
01-Oct-20 17:44 32.692121 -111.637302 310 6505ft 116kts
01-Oct-20 17:45 32.712066 -111.664984 309 6507ft 117kts
01-Oct-20 17:46 32.740562 -111.704468 310 6507ft 117kts
01-Oct-20 17:47 32.761727 -111.733882 310 6507ft 117kts
01-Oct-20 17:48 32.782910 -111.763356 310 6507ft 117kts
01-Oct-20 17:49 32.804047 -111.792793 310 6507ft 117kts
01-Oct-20 17:50 32.825134 -111.822185 310 6506ft 117kts
01-Oct-20 17:51 32.846296 -111.851705 310 6506ft 117kts
01-Oct-20 17:52 32.867396 -111.881164 310 6506ft 117kts
01-Oct-20 17:53 32.888368 -111.910592 309 6506ft 117kts
01-Oct-20 17:54 32.908869 -111.939997 309 6506ft 117kts
01-Oct-20 17:55 32.929823 -111.970103 309 6506ft 117kts
01-Oct-20 17:56 32.950532 -111.999891 309 6506ft 117kts
01-Oct-20 17:57 32.971255 -112.029726 309 6506ft 117kts
01-Oct-20 17:58 32.991958 -112.059557 309 6506ft 117kts
01-Oct-20 17:59 33.012631 -112.089407 309 6505ft 117kts
01-Oct-20 18:00 33.036672 -112.124131 309 6505ft 116kts
01-Oct-20 18:01 33.057331 -112.153982 309 6505ft 116kts
01-Oct-20 18:02 33.077962 -112.183811 309 6505ft 116kts
01-Oct-20 18:03 33.098615 -112.213695 309 6505ft 116kts
01-Oct-20 18:04 33.118772 -112.243340 308 6507ft 117kts
01-Oct-20 18:05 33.139465 -112.274123 309 6507ft 117kts
01-Oct-20 18:06 33.160107 -112.304156 309 6507ft 117kts
01-Oct-20 18:07 33.180805 -112.334243 309 6507ft 117kts
01-Oct-20 18:08 33.201438 -112.364165 309 6163ft 115kts
01-Oct-20 18:09 33.220801 -112.392331 308 5653ft 105kts
01-Oct-20 18:10 33.239217 -112.419165 308 5148ft 104kts
01-Oct-20 18:11 33.257605 -112.445974 308 4646ft 105kts
01-Oct-20 18:12 33.276221 -112.473146 308 4141ft 106kts
01-Oct-20 18:13 33.295040 -112.500611 307 3636ft 107kts
01-Oct-20 18:14 33.313739 -112.527921 307 3206ft 98kts
01-Oct-20 18:15 33.325243 -112.544757 307 3215ft 80kts
01-Oct-20 18:16 33.339398 -112.565517 307 3217ft 80kts
01-Oct-20 18:17 33.353666 -112.586397 307 3217ft 81kts
01-Oct-20 18:18 33.367900 -112.607234 307 3217ft 81kts
01-Oct-20 18:19 33.382188 -112.628161 307 3217ft 81kts
01-Oct-20 18:20 33.396407 -112.649016 307 3217ft 81kts
01-Oct-20 18:21 33.410232 -112.669331 306 3218ft 81kts
01-Oct-20 18:22 33.424964 -112.690596 308 3134ft 91kts
01-Oct-20 18:23 33.445568 -112.715959 340 2381ft 125kts
01-Oct-20 18:24 33.475443 -112.716001 358 2040ft 73kts
01-Oct-20 18:25 33.491437 -112.706042 84 1669ft 82kts
01-Oct-20 18:26 33.484227 -112.685789 174 1492ft 65kts
01-Oct-20 18:27 33.462986 -112.685147 192 1615ft 75kts
01-Oct-20 18:28 33.445344 -112.685031 186 1384ft 60kts
01-Oct-20 18:29 33.428499 -112.685997 185 1021ft 44kts
01-Oct-20 18:30 33.428499 -112.684684 4 1021ft 0kts
01-Oct-20 18:31 33.428499 -112.684684 4 1021ft 0kts
01-Oct-20 18:32 33.428499 -112.684684 4 1021ft 0kts
01-Oct-20 18:33 33.428499 -112.684684 4 1021ft 0kts

Navigation Log

Ident Type
Flight plan parsing failed, navigation log unavailable